createdAt,value
2022-09-12T00:01:37.322Z,54.60
2022-09-12T00:04:05.803Z,54.98
2022-09-12T00:06:36.884Z,54.95
2022-09-12T00:09:08.927Z,54.86
2022-09-12T00:11:38.611Z,54.46
2022-09-12T00:14:09.880Z,54.57
2022-09-12T00:16:39.080Z,54.53
2022-09-12T00:19:08.691Z,54.52
2022-09-12T00:21:38.570Z,54.64
2022-09-12T00:24:07.643Z,54.68
2022-09-12T00:26:36.733Z,54.91
2022-09-12T00:29:05.582Z,54.69
2022-09-12T00:31:35.792Z,54.63
2022-09-12T00:34:04.314Z,54.84
2022-09-12T00:36:32.831Z,54.69
2022-09-12T00:39:01.262Z,55.04
2022-09-12T00:41:32.783Z,54.89
2022-09-12T00:44:03.138Z,54.84
2022-09-12T00:46:39.266Z,54.33
2022-09-12T00:49:14.777Z,54.44
2022-09-12T00:51:47.481Z,54.61
2022-09-12T00:54:20.932Z,54.55
2022-09-12T00:56:54.056Z,54.50
2022-09-12T00:59:27.369Z,54.22
2022-09-12T01:01:58.031Z,54.80
2022-09-12T01:04:29.310Z,54.31
2022-09-12T01:06:59.717Z,54.22
2022-09-12T01:09:28.239Z,54.64
2022-09-12T01:11:57.304Z,54.47
2022-09-12T01:14:26.190Z,54.28
2022-09-12T01:16:56.204Z,54.34
2022-09-12T01:19:43.961Z,54.49
2022-09-12T01:22:28.124Z,54.52
2022-09-12T01:25:09.574Z,54.36
2022-09-12T01:27:50.010Z,54.17
2022-09-12T01:30:48.562Z,54.45
2022-09-12T01:33:35.305Z,54.28
2022-09-12T01:36:39.437Z,53.92
2022-09-12T01:39:16.603Z,54.31
2022-09-12T01:41:54.092Z,54.05
2022-09-12T01:44:29.324Z,54.17
2022-09-12T01:47:08.655Z,54.04
2022-09-12T01:49:43.085Z,53.95
2022-09-12T01:52:19.721Z,54.13
2022-09-12T01:54:52.748Z,54.06
2022-09-12T01:57:26.677Z,53.87
2022-09-12T02:00:00.599Z,54.11
2022-09-12T02:02:36.722Z,54.09
2022-09-12T02:05:10.358Z,53.68
2022-09-12T02:07:43.421Z,53.66
2022-09-12T02:10:16.242Z,53.73
2022-09-12T02:12:51.411Z,53.65
2022-09-12T02:15:24.925Z,53.51
2022-09-12T02:17:59.686Z,53.28
2022-09-12T02:20:47.376Z,53.78
2022-09-12T02:23:20.670Z,53.32
2022-09-12T02:25:53.747Z,53.41
2022-09-12T02:28:27.535Z,53.04
2022-09-12T02:31:05.248Z,53.43
2022-09-12T02:33:46.591Z,53.39
2022-09-12T02:36:24.197Z,53.68
2022-09-12T02:38:53.239Z,53.35
2022-09-12T02:41:22.855Z,53.18
2022-09-12T02:43:53.124Z,53.37
2022-09-12T02:46:24.771Z,53.62
2022-09-12T02:48:55.594Z,53.61
2022-09-12T02:51:24.552Z,53.41
2022-09-12T02:53:53.340Z,53.08
2022-09-12T02:56:27.328Z,53.09
2022-09-12T02:58:57.767Z,53.26
2022-09-12T03:01:37.175Z,53.58
2022-09-12T03:04:36.808Z,53.40
2022-09-12T03:07:15.320Z,53.23
2022-09-12T03:09:49.109Z,53.18
2022-09-12T03:12:32.143Z,52.85
2022-09-12T03:15:19.211Z,52.69
2022-09-12T03:18:05.165Z,53.05
2022-09-12T03:20:51.772Z,53.08
2022-09-12T03:23:28.103Z,52.83
2022-09-12T03:26:01.146Z,52.81
2022-09-12T03:28:30.555Z,52.58
2022-09-12T03:30:59.795Z,52.55
2022-09-12T03:33:28.470Z,52.75
2022-09-12T03:35:58.907Z,52.29
2022-09-12T03:38:27.448Z,52.47
2022-09-12T03:40:55.935Z,52.62
2022-09-12T03:43:24.547Z,52.26
2022-09-12T03:45:53.552Z,51.99
2022-09-12T03:48:22.269Z,52.39
2022-09-12T03:50:50.655Z,52.16
2022-09-12T03:53:20.554Z,51.94
2022-09-12T03:55:49.150Z,52.46
2022-09-12T03:58:17.625Z,52.32
2022-09-12T04:00:46.199Z,52.47
2022-09-12T04:03:14.831Z,52.40
2022-09-12T04:05:43.286Z,52.41
2022-09-12T04:08:11.860Z,52.18
2022-09-12T04:10:41.825Z,52.77
2022-09-12T04:13:10.402Z,52.59
2022-09-12T04:15:38.785Z,52.85
2022-09-12T04:18:07.347Z,52.91
2022-09-12T04:20:37.328Z,52.77
2022-09-12T04:23:05.766Z,52.59
2022-09-12T04:25:34.720Z,52.32
2022-09-12T04:28:04.841Z,51.96
2022-09-12T04:30:35.169Z,51.83
2022-09-12T04:33:07.917Z,51.70
2022-09-12T04:35:36.916Z,51.59
2022-09-12T04:38:05.526Z,51.59
2022-09-12T04:40:33.942Z,51.50
2022-09-12T04:43:02.659Z,51.71
2022-09-12T04:45:32.649Z,51.73
2022-09-12T04:48:01.564Z,52.16
2022-09-12T04:50:29.978Z,51.93
2022-09-12T04:52:58.468Z,52.40
2022-09-12T04:55:26.966Z,52.49
2022-09-12T04:57:55.491Z,52.57
2022-09-12T05:00:23.943Z,51.98
2022-09-12T05:02:53.869Z,51.90
2022-09-12T05:05:22.395Z,51.64
2022-09-12T05:07:50.867Z,51.48
2022-09-12T05:10:19.513Z,51.01
2022-09-12T05:12:48.502Z,51.43
2022-09-12T05:15:17.091Z,51.34
2022-09-12T05:17:46.088Z,50.69
2022-09-12T05:20:17.464Z,50.75
2022-09-12T05:22:45.983Z,50.98
2022-09-12T05:25:14.535Z,50.92
2022-09-12T05:27:44.680Z,50.82
2022-09-12T05:30:16.313Z,51.33
2022-09-12T05:32:44.930Z,51.35
2022-09-12T05:35:13.365Z,51.14
2022-09-12T05:37:44.416Z,51.31
2022-09-12T05:40:16.241Z,51.40
2022-09-12T05:42:44.810Z,51.16
2022-09-12T05:45:14.340Z,51.05
2022-09-12T05:47:43.975Z,51.21
2022-09-12T05:50:12.540Z,50.85
2022-09-12T05:52:43.062Z,50.79
2022-09-12T05:55:11.849Z,50.81
2022-09-12T05:57:40.412Z,50.85
2022-09-12T06:00:10.764Z,50.41
2022-09-12T06:02:42.714Z,50.24
2022-09-12T06:05:11.241Z,50.40
2022-09-12T06:07:39.893Z,50.66
2022-09-12T06:10:12.088Z,50.37
2022-09-12T06:12:40.770Z,50.68
2022-09-12T06:15:10.640Z,50.75
2022-09-12T06:17:39.096Z,50.46
2022-09-12T06:20:08.628Z,50.42
2022-09-12T06:22:37.004Z,50.13
2022-09-12T06:25:06.198Z,50.56
2022-09-12T06:27:35.793Z,50.09
2022-09-12T06:30:04.795Z,50.59
2022-09-12T06:32:34.579Z,49.90
2022-09-12T06:35:03.809Z,50.16
2022-09-12T06:37:32.694Z,49.69
2022-09-12T06:40:01.983Z,49.58
2022-09-12T06:42:33.088Z,50.08
2022-09-12T06:45:03.236Z,49.71
2022-09-12T06:47:32.242Z,49.75
2022-09-12T06:50:00.690Z,50.04
2022-09-12T06:52:29.653Z,50.38
2022-09-12T06:54:58.101Z,50.12
2022-09-12T06:57:30.464Z,50.25
2022-09-12T06:59:58.946Z,49.91
2022-09-12T07:02:28.968Z,50.10
2022-09-12T07:04:58.054Z,50.29
2022-09-12T07:07:26.637Z,50.10
2022-09-12T07:09:57.829Z,49.48
2022-09-12T07:12:26.313Z,49.66
2022-09-12T07:14:57.171Z,49.55
2022-09-12T07:17:25.768Z,49.47
2022-09-12T07:19:55.540Z,49.50
2022-09-12T07:22:24.058Z,49.54
2022-09-12T07:24:54.208Z,49.54
2022-09-12T07:27:22.729Z,49.44
2022-09-12T07:29:51.231Z,48.99
2022-09-12T07:32:19.744Z,49.19
2022-09-12T07:34:48.245Z,49.37
2022-09-12T07:37:18.143Z,48.79
2022-09-12T07:39:46.807Z,49.37
2022-09-12T07:42:15.387Z,49.34
2022-09-12T07:44:44.595Z,48.93
2022-09-12T07:47:12.905Z,49.37
2022-09-12T07:49:41.451Z,49.20
2022-09-12T07:52:09.846Z,49.05
2022-09-12T07:54:39.760Z,48.92
2022-09-12T07:57:08.238Z,49.03
2022-09-12T07:59:52.460Z,48.79
2022-09-12T08:02:22.207Z,48.48
2022-09-12T08:04:51.585Z,48.54
2022-09-12T08:07:20.371Z,48.59
2022-09-12T08:09:50.370Z,48.58
2022-09-12T08:12:20.424Z,48.26
2022-09-12T08:14:48.942Z,48.47
2022-09-12T08:17:17.410Z,48.21
2022-09-12T08:19:45.992Z,47.74
2022-09-12T08:22:14.637Z,47.58
2022-09-12T08:24:43.906Z,47.66
2022-09-12T08:27:14.951Z,47.49
2022-09-12T08:29:43.734Z,47.67
2022-09-12T08:32:12.288Z,47.62
2022-09-12T08:34:40.726Z,47.09
2022-09-12T08:37:09.282Z,46.95
2022-09-12T08:39:37.845Z,46.36
2022-09-12T08:42:07.663Z,46.68
2022-09-12T08:44:55.770Z,45.79
2022-09-12T08:47:29.017Z,46.22
2022-09-12T08:50:07.763Z,45.61
2022-09-12T08:52:43.686Z,45.98
2022-09-12T08:55:25.894Z,46.04
2022-09-12T08:57:55.223Z,45.62
2022-09-12T09:00:27.210Z,45.52
2022-09-12T09:03:10.227Z,45.57
2022-09-12T09:05:47.382Z,45.55
2022-09-12T09:08:27.102Z,45.86
2022-09-12T09:11:03.370Z,45.59
2022-09-12T09:14:05.183Z,45.98
2022-09-12T09:16:39.557Z,46.33
2022-09-12T09:19:17.569Z,46.49
2022-09-12T09:21:52.552Z,47.29
2022-09-12T09:24:25.872Z,47.89
2022-09-12T09:26:58.558Z,48.40
2022-09-12T09:29:31.469Z,48.34
2022-09-12T09:32:04.875Z,48.81
2022-09-12T09:34:33.432Z,48.94
2022-09-12T09:37:10.631Z,49.10
2022-09-12T09:39:52.724Z,49.39
2022-09-12T09:42:32.226Z,49.59
2022-09-12T09:45:04.422Z,49.56
2022-09-12T09:47:34.473Z,50.03
2022-09-12T09:50:03.789Z,50.08
2022-09-12T09:52:33.112Z,50.00
2022-09-12T09:55:02.907Z,50.00
2022-09-12T09:57:46.755Z,49.84
2022-09-12T10:00:27.755Z,50.14
2022-09-12T10:03:27.529Z,49.97
2022-09-12T10:06:00.465Z,49.96
2022-09-12T10:08:31.246Z,50.21
2022-09-12T10:11:03.120Z,49.97
2022-09-12T10:13:43.794Z,50.13
2022-09-12T10:16:22.388Z,50.12
2022-09-12T10:18:54.208Z,49.77
2022-09-12T10:21:29.737Z,49.84
2022-09-12T10:24:05.333Z,50.26
2022-09-12T10:26:37.146Z,49.92
2022-09-12T10:29:14.168Z,50.20
2022-09-12T10:31:48.554Z,50.84
2022-09-12T10:34:33.633Z,50.73
2022-09-12T10:37:06.107Z,50.86
2022-09-12T10:39:36.801Z,51.12
2022-09-12T10:42:06.745Z,51.25
2022-09-12T10:44:36.490Z,51.58
2022-09-12T10:47:24.419Z,51.40
2022-09-12T10:49:54.375Z,51.54
2022-09-12T10:52:25.552Z,51.36
2022-09-12T10:54:54.985Z,51.37
2022-09-12T10:57:59.306Z,51.69
2022-09-12T11:00:30.738Z,51.76
2022-09-12T11:03:07.035Z,51.26
2022-09-12T11:05:55.295Z,51.21
2022-09-12T11:08:38.532Z,51.77
2022-09-12T11:11:15.269Z,51.99
2022-09-12T11:14:06.777Z,51.56
2022-09-12T11:16:43.106Z,51.31
2022-09-12T11:19:33.447Z,51.35
2022-09-12T11:22:26.703Z,51.23
2022-09-12T11:25:13.749Z,51.13
2022-09-12T11:28:05.134Z,50.94
2022-09-12T11:30:43.955Z,50.81
2022-09-12T11:33:30.173Z,50.73
2022-09-12T11:35:59.332Z,50.57
2022-09-12T11:38:40.348Z,50.70
2022-09-12T11:41:11.660Z,50.63
2022-09-12T11:43:45.014Z,50.35
2022-09-12T11:46:21.080Z,50.82
2022-09-12T11:48:56.065Z,50.80
2022-09-12T11:51:29.305Z,50.64
2022-09-12T11:54:07.939Z,50.66
2022-09-12T11:56:39.270Z,50.59
2022-09-12T11:59:16.860Z,50.27
2022-09-12T12:01:50.185Z,50.32
2022-09-12T12:04:26.045Z,50.49
2022-09-12T12:07:03.466Z,50.30
2022-09-12T12:09:34.034Z,50.50
2022-09-12T12:12:07.881Z,50.62
2022-09-12T12:14:43.013Z,50.32
2022-09-12T12:17:16.933Z,50.65
2022-09-12T12:19:47.801Z,50.40
2022-09-12T12:22:19.454Z,50.51
2022-09-12T12:25:07.980Z,50.03
2022-09-12T12:27:52.189Z,50.04
2022-09-12T12:31:02.185Z,50.31
2022-09-12T12:34:13.601Z,49.89
2022-09-12T12:36:43.992Z,50.25
2022-09-12T12:40:01.300Z,49.70
2022-09-12T12:43:10.504Z,50.07
2022-09-12T12:46:11.527Z,50.25
2022-09-12T12:49:10.902Z,50.62
2022-09-12T12:51:57.815Z,50.62
2022-09-12T12:54:52.057Z,50.89
2022-09-12T12:57:28.656Z,51.03
2022-09-12T13:00:02.728Z,50.86
2022-09-12T13:02:37.290Z,51.15
2022-09-12T13:05:08.716Z,51.57
2022-09-12T13:07:40.004Z,51.61
2022-09-12T13:10:09.690Z,51.26
2022-09-12T13:12:47.911Z,50.71
2022-09-12T13:15:51.530Z,50.67
2022-09-12T13:18:27.916Z,50.97
2022-09-12T13:21:05.406Z,50.61
2022-09-12T13:23:35.364Z,50.80
2022-09-12T13:26:05.188Z,50.62
2022-09-12T13:28:33.753Z,50.88
2022-09-12T13:31:04.631Z,50.42
2022-09-12T13:33:39.158Z,49.96
2022-09-12T13:36:41.813Z,50.01
2022-09-12T13:39:20.496Z,49.96
2022-09-12T13:42:21.790Z,50.21
2022-09-12T13:44:54.260Z,50.49
2022-09-12T13:47:32.083Z,50.26
2022-09-12T13:50:02.764Z,50.68
2022-09-12T13:52:35.473Z,50.06
2022-09-12T13:55:09.137Z,49.92
2022-09-12T13:57:41.464Z,49.59
2022-09-12T14:00:19.482Z,49.20
2022-09-12T14:02:49.406Z,49.74
2022-09-12T14:05:22.835Z,50.03
2022-09-12T14:07:56.566Z,50.21
2022-09-12T14:10:30.378Z,49.95
2022-09-12T14:13:00.323Z,50.09
2022-09-12T14:15:31.746Z,50.09
2022-09-12T14:18:02.340Z,49.84
2022-09-12T14:20:36.580Z,50.04
2022-09-12T14:23:10.907Z,50.36
2022-09-12T14:25:42.018Z,50.26
2022-09-12T14:28:16.960Z,50.46
2022-09-12T14:31:03.261Z,50.02
2022-09-12T14:33:35.776Z,49.93
2022-09-12T14:36:19.598Z,49.30
2022-09-12T14:38:51.985Z,49.40
2022-09-12T14:41:27.183Z,48.87
2022-09-12T14:43:59.535Z,49.00
2022-09-12T14:46:32.012Z,48.58
2022-09-12T14:49:15.939Z,48.80
2022-09-12T14:51:56.847Z,49.00
2022-09-12T14:54:40.388Z,48.89
2022-09-12T14:57:36.599Z,48.88
2022-09-12T15:00:23.678Z,49.07
2022-09-12T15:02:54.176Z,49.45
2022-09-12T15:05:26.568Z,48.86
2022-09-12T15:07:59.529Z,49.28
2022-09-12T15:10:31.518Z,49.17
2022-09-12T15:13:15.475Z,49.31
2022-09-12T15:15:50.339Z,49.33
2022-09-12T15:18:19.939Z,49.79
2022-09-12T15:20:50.865Z,49.96
2022-09-12T15:23:28.438Z,49.43
2022-09-12T15:25:56.986Z,49.17
2022-09-12T15:28:26.943Z,48.73
2022-09-12T15:30:57.904Z,48.47
2022-09-12T15:33:26.869Z,48.42
2022-09-12T15:35:55.497Z,48.02
2022-09-12T15:38:26.722Z,48.23
2022-09-12T15:41:03.187Z,48.04
2022-09-12T15:43:42.664Z,47.96
2022-09-12T15:46:13.478Z,47.75
2022-09-12T15:48:44.931Z,47.99
2022-09-12T15:51:18.424Z,47.92
2022-09-12T15:53:49.993Z,48.04
2022-09-12T15:56:21.187Z,47.75
2022-09-12T15:59:00.068Z,47.68
2022-09-12T16:01:34.630Z,48.06
2022-09-12T16:04:24.532Z,47.89
2022-09-12T16:06:53.381Z,47.72
2022-09-12T16:09:33.463Z,48.03
2022-09-12T16:12:12.169Z,48.05
2022-09-12T16:14:55.238Z,48.57
2022-09-12T16:17:25.129Z,48.59
2022-09-12T16:20:29.287Z,48.34
2022-09-12T16:23:08.803Z,48.46
2022-09-12T16:25:43.088Z,48.82
2022-09-12T16:28:21.529Z,48.76
2022-09-12T16:30:59.560Z,48.72
2022-09-12T16:33:49.479Z,48.55
2022-09-12T16:36:20.562Z,48.26
2022-09-12T16:38:50.712Z,48.38
2022-09-12T16:41:22.195Z,48.13
2022-09-12T16:43:50.827Z,47.93
2022-09-12T16:46:21.050Z,47.98
2022-09-12T16:48:52.706Z,47.49
2022-09-12T16:51:23.780Z,47.73
2022-09-12T16:53:52.600Z,47.25
2022-09-12T16:56:22.953Z,47.07
2022-09-12T16:58:51.961Z,47.23
2022-09-12T17:01:23.092Z,46.96
2022-09-12T17:03:54.767Z,47.10
2022-09-12T17:06:24.082Z,46.95
2022-09-12T17:08:54.150Z,47.09
2022-09-12T17:11:26.883Z,47.11
2022-09-12T17:14:05.747Z,47.01
2022-09-12T17:16:36.003Z,46.87
2022-09-12T17:19:05.512Z,47.00
2022-09-12T17:21:34.454Z,47.36
2022-09-12T17:24:03.643Z,47.25
2022-09-12T17:26:33.839Z,47.23
2022-09-12T17:29:03.581Z,47.31
2022-09-12T17:31:32.688Z,47.01
2022-09-12T17:34:03.699Z,47.40
2022-09-12T17:36:34.581Z,47.11
2022-09-12T17:39:05.105Z,47.07
2022-09-12T17:41:35.845Z,47.22
2022-09-12T17:44:06.366Z,47.22
2022-09-12T17:46:37.604Z,46.96
2022-09-12T17:49:09.126Z,47.49
2022-09-12T17:51:38.277Z,47.13
2022-09-12T17:54:09.327Z,47.42
2022-09-12T17:56:39.995Z,47.20
2022-09-12T17:59:12.396Z,47.19
2022-09-12T18:01:59.258Z,47.02
2022-09-12T18:04:28.621Z,47.22
2022-09-12T18:07:00.904Z,47.22
2022-09-12T18:09:31.021Z,47.53
2022-09-12T18:12:01.570Z,47.50
2022-09-12T18:14:30.836Z,47.67
2022-09-12T18:17:00.711Z,47.58
2022-09-12T18:19:30.188Z,47.39
2022-09-12T18:21:59.341Z,48.15
2022-09-12T18:24:28.366Z,48.82
2022-09-12T18:26:58.191Z,48.98
2022-09-12T18:29:28.575Z,48.69
2022-09-12T18:31:58.066Z,49.37
2022-09-12T18:34:27.460Z,49.27
2022-09-12T18:36:56.361Z,49.55
2022-09-12T18:39:27.914Z,49.28
2022-09-12T18:41:57.732Z,49.28
2022-09-12T18:44:28.357Z,49.11
2022-09-12T18:46:57.579Z,49.60
2022-09-12T18:49:26.363Z,49.90
2022-09-12T18:51:55.363Z,49.22
2022-09-12T18:54:24.665Z,49.17
2022-09-12T18:56:53.528Z,49.63
2022-09-12T18:59:22.681Z,49.80
2022-09-12T19:01:53.593Z,49.61
2022-09-12T19:04:23.000Z,49.17
2022-09-12T19:06:51.963Z,49.59
2022-09-12T19:11:50.704Z,50.61
2022-09-12T19:14:22.835Z,50.63
2022-09-12T19:16:54.024Z,51.00
2022-09-12T19:19:22.944Z,50.99
2022-09-12T19:21:51.611Z,50.97
2022-09-12T19:24:21.966Z,51.48
2022-09-12T19:26:51.336Z,51.05
2022-09-12T19:29:20.198Z,51.05
2022-09-12T19:31:49.157Z,50.78
2022-09-12T19:34:19.388Z,50.70
2022-09-12T19:36:48.322Z,50.76
2022-09-12T19:39:19.844Z,50.73
2022-09-12T19:41:49.493Z,50.83
2022-09-12T19:44:19.611Z,50.82
2022-09-12T19:46:49.632Z,50.35
2022-09-12T19:49:19.555Z,50.40
2022-09-12T19:51:48.196Z,50.12
2022-09-12T19:54:16.729Z,49.88
2022-09-12T19:56:45.304Z,50.22
2022-09-12T19:59:13.965Z,50.26
2022-09-12T20:01:42.632Z,50.16
2022-09-12T20:04:11.322Z,50.13
2022-09-12T20:06:41.197Z,49.95
2022-09-12T20:09:09.848Z,50.07
2022-09-12T20:11:38.307Z,50.20
2022-09-12T20:14:07.710Z,50.03
2022-09-12T20:16:36.167Z,50.29
2022-09-12T20:19:08.669Z,50.04
2022-09-12T20:21:38.117Z,49.73
2022-09-12T20:24:11.493Z,49.91
2022-09-12T20:26:40.506Z,50.13
2022-09-12T20:29:10.190Z,50.14
2022-09-12T20:31:40.442Z,49.63
2022-09-12T20:34:09.717Z,49.66
2022-09-12T20:36:38.301Z,49.53
2022-09-12T20:39:08.239Z,49.36
2022-09-12T20:41:36.913Z,49.73
2022-09-12T20:44:05.441Z,49.47
2022-09-12T20:46:34.362Z,49.70
2022-09-12T20:49:02.971Z,49.33
2022-09-12T20:51:31.923Z,49.51
2022-09-12T20:54:02.134Z,49.66
2022-09-12T20:56:33.389Z,49.73
2022-09-12T20:59:02.253Z,49.63
2022-09-12T21:01:32.595Z,49.81
2022-09-12T21:04:01.966Z,49.78
2022-09-12T21:06:31.478Z,49.69
2022-09-12T21:09:00.775Z,49.50
2022-09-12T21:11:29.788Z,49.73
2022-09-12T21:14:00.000Z,49.86
2022-09-12T21:16:28.579Z,49.90
2022-09-12T21:18:59.530Z,49.94
2022-09-12T21:21:28.199Z,49.89
2022-09-12T21:23:59.642Z,49.89
2022-09-12T21:26:28.521Z,49.91
2022-09-12T21:28:57.566Z,49.75
2022-09-12T21:31:27.370Z,49.86
2022-09-12T21:33:55.915Z,49.94
2022-09-12T21:36:25.744Z,49.91
2022-09-12T21:38:54.410Z,50.12
2022-09-12T21:41:22.893Z,49.58
2022-09-12T21:43:51.429Z,49.44
2022-09-12T21:46:20.111Z,49.52
2022-09-12T21:48:50.022Z,49.51
2022-09-12T21:51:18.602Z,50.09
2022-09-12T21:53:47.085Z,49.71
2022-09-12T21:56:15.565Z,50.04
2022-09-12T21:58:44.126Z,49.87
2022-09-12T22:01:13.318Z,49.76
2022-09-12T22:03:43.154Z,49.46
2022-09-12T22:06:14.372Z,49.78
2022-09-12T22:08:43.242Z,49.72
2022-09-12T22:11:12.946Z,49.40
2022-09-12T22:13:44.056Z,49.53
2022-09-12T22:16:13.331Z,49.26
2022-09-12T22:18:41.650Z,49.79
2022-09-12T22:21:14.113Z,49.49
2022-09-12T22:24:00.571Z,49.31
2022-09-12T22:26:29.484Z,49.58
2022-09-12T22:28:58.048Z,49.61
2022-09-12T22:31:27.163Z,49.94
2022-09-12T22:33:57.141Z,49.52
2022-09-12T22:36:30.966Z,49.33
2022-09-12T22:38:59.869Z,49.39
2022-09-12T22:41:28.574Z,49.52
2022-09-12T22:43:58.269Z,49.64
2022-09-12T22:46:27.744Z,49.36
2022-09-12T22:48:56.879Z,49.55
2022-09-12T22:51:27.381Z,49.61
2022-09-12T22:53:56.563Z,49.30
2022-09-12T22:56:25.031Z,49.10
2022-09-12T22:58:53.663Z,49.22
2022-09-12T23:01:22.223Z,49.68
2022-09-12T23:03:50.951Z,49.33
2022-09-12T23:06:19.596Z,49.28
2022-09-12T23:08:49.516Z,49.24
2022-09-12T23:11:21.012Z,49.27
2022-09-12T23:13:52.080Z,49.41
2022-09-12T23:16:21.945Z,49.03
2022-09-12T23:18:50.980Z,49.30
2022-09-12T23:21:20.474Z,49.08
2022-09-12T23:23:51.025Z,49.50
2022-09-12T23:26:21.685Z,49.45
2022-09-12T23:28:52.923Z,49.62
2022-09-12T23:31:21.763Z,49.42
2022-09-12T23:33:51.242Z,48.93
2022-09-12T23:36:19.942Z,49.38
2022-09-12T23:38:48.759Z,49.25
2022-09-12T23:41:19.925Z,49.14
2022-09-12T23:43:48.436Z,48.51
2022-09-12T23:46:19.225Z,48.44
2022-09-12T23:48:48.314Z,48.61
2022-09-12T23:51:17.351Z,48.30
2022-09-12T23:53:45.596Z,48.70
2022-09-12T23:56:14.050Z,48.68
2022-09-12T23:58:44.019Z,49.09
